Impacts TAF Board INFO
FOR SITUATIONAL AWARENESS. NOT TO BE USED FOR FLIGHT PLANNING PURPOSES.
IDs:

KSTL - St Louis/Lambert Int, MO, US

Issued at 1120 UTC 16 Dec 2017
Updated at 1451 UTC 16 Dec 2017
Potential Impact None Slight Moderate High
Time1351Z 16/15Z 16/16Z 16/17Z 16/18Z 16/19Z 16/20Z 16/21Z 16/22Z 16/23Z 17/00Z 17/01Z 17/02Z 17/03Z>>
Type OBS PRVL PRVL PRVL PRVL PRVL PRVL PRVL PRVL PRVL PRVL PRVL PRVL PRVL
VIS 10 >6 >6 >6 >6 >6 >6 >6 >6 >6 >6 >6 >6 >6
CIG -- -- -- -- -- -- -- -- -- -- -- -- -- --
Cover FEW SKC SKC SKC SKC SKC SKC SKC SKC SKC SKC SKC SKC SKC
FltCat VFR VFR VFR VFR VFR VFR VFR VFR VFR VFR VFR VFR VFR VFR
WX -- -- -- -- -- -- -- -- -- -- -- -- -- --
WDir 210 220 220 220 220 220 220 220 210 210 210 210 210 210
WSpd 14 11 11 11 11 11 11 11 8 8 8 8 8 8
WGst -- 22 22 22 22 22 22 22 -- -- -- -- -- --

Raw TAF
KSTL 161120Z 1612/1718 21012KT P6SM SKC WS015/25035KT
  FM161500 22011G22KT P6SM SKC
  FM162200 21008KT P6SM SKC
  FM171200 19004KT P6SM -RA OVC060


Raw METAR
KSTL 161351Z 21014KT 10SM FEW250 04/M03 A2998 RMK AO2 SLP160 T00391033
KSTL 161251Z 21013KT 10SM FEW250 03/M03 A2998 RMK AO2 SLP161 T00331033
KSTL 161151Z 22014KT 10SM CLR 04/M04 A2997 RMK AO2 SLP157 T00391039 10039 20022 56010

METAR Board
Radar Display
Forecast Discussion

FOR SITUATIONAL AWARENESS. NOT TO BE USED FOR FLIGHT PLANNING PURPOSES.